sensor_id;sensor_type;location;lat;lon;timestamp;pressure;altitude;pressure_sealevel;temperature;humidity
13695;BME280;6919;52.344;14.518;2023-02-23T00:02:20;100639.69;;;4.68;100.00
13695;BME280;6919;52.344;14.518;2023-02-23T00:04:48;100638.81;;;4.67;100.00
13695;BME280;6919;52.344;14.518;2023-02-23T00:07:17;100638.69;;;4.58;100.00
13695;BME280;6919;52.344;14.518;2023-02-23T00:09:47;100629.38;;;4.52;100.00
13695;BME280;6919;52.344;14.518;2023-02-23T00:12:18;100632.41;;;4.59;100.00
13695;BME280;6919;52.344;14.518;2023-02-23T00:14:47;100630.44;;;4.50;100.00
13695;BME280;6919;52.344;14.518;2023-02-23T00:17:18;100632.25;;;4.49;100.00
13695;BME280;6919;52.344;14.518;2023-02-23T00:19:47;100633.66;;;4.42;100.00
13695;BME280;6919;52.344;14.518;2023-02-23T00:22:19;100626.16;;;4.36;100.00
13695;BME280;6919;52.344;14.518;2023-02-23T00:24:48;100632.16;;;4.27;100.00
13695;BME280;6919;52.344;14.518;2023-02-23T00:27:18;100623.72;;;4.33;100.00
13695;BME280;6919;52.344;14.518;2023-02-23T00:29:48;100619.50;;;4.31;100.00
13695;BME280;6919;52.344;14.518;2023-02-23T00:32:18;100620.56;;;4.28;100.00
13695;BME280;6919;52.344;14.518;2023-02-23T00:34:47;100614.78;;;4.23;100.00
13695;BME280;6919;52.344;14.518;2023-02-23T00:37:17;100621.94;;;4.10;100.00
13695;BME280;6919;52.344;14.518;2023-02-23T00:39:46;100626.81;;;4.16;100.00
13695;BME280;6919;52.344;14.518;2023-02-23T00:42:15;100616.69;;;4.21;100.00
13695;BME280;6919;52.344;14.518;2023-02-23T00:44:45;100615.97;;;4.19;100.00
13695;BME280;6919;52.344;14.518;2023-02-23T00:47:15;100621.31;;;4.07;100.00
13695;BME280;6919;52.344;14.518;2023-02-23T00:49:44;100626.00;;;4.03;100.00
13695;BME280;6919;52.344;14.518;2023-02-23T00:52:13;100624.66;;;3.98;100.00
13695;BME280;6919;52.344;14.518;2023-02-23T00:54:42;100630.13;;;4.07;100.00
13695;BME280;6919;52.344;14.518;2023-02-23T00:57:10;100626.38;;;4.10;100.00
13695;BME280;6919;52.344;14.518;2023-02-23T00:59:39;100632.16;;;4.04;100.00
13695;BME280;6919;52.344;14.518;2023-02-23T01:02:10;100629.84;;;3.99;100.00
13695;BME280;6919;52.344;14.518;2023-02-23T01:04:38;100632.94;;;3.93;100.00
13695;BME280;6919;52.344;14.518;2023-02-23T01:07:07;100634.13;;;3.89;100.00
13695;BME280;6919;52.344;14.518;2023-02-23T01:09:39;100627.13;;;3.88;100.00
13695;BME280;6919;52.344;14.518;2023-02-23T01:12:08;100614.13;;;3.73;100.00
13695;BME280;6919;52.344;14.518;2023-02-23T01:14:37;100613.44;;;3.82;100.00
13695;BME280;6919;52.344;14.518;2023-02-23T01:17:06;100618.47;;;3.74;100.00
13695;BME280;6919;52.344;14.518;2023-02-23T01:19:37;100615.91;;;3.72;100.00
13695;BME280;6919;52.344;14.518;2023-02-23T01:22:05;100612.50;;;3.83;100.00
13695;BME280;6919;52.344;14.518;2023-02-23T01:24:34;100618.47;;;3.74;100.00
13695;BME280;6919;52.344;14.518;2023-02-23T01:27:04;100610.28;;;3.77;100.00
13695;BME280;6919;52.344;14.518;2023-02-23T01:29:33;100617.22;;;3.67;100.00
13695;BME280;6919;52.344;14.518;2023-02-23T01:32:02;100616.03;;;3.71;100.00
13695;BME280;6919;52.344;14.518;2023-02-23T01:34:31;100613.59;;;3.68;100.00
13695;BME280;6919;52.344;14.518;2023-02-23T01:37:03;100605.03;;;3.64;100.00
13695;BME280;6919;52.344;14.518;2023-02-23T01:39:32;100614.09;;;3.49;100.00
13695;BME280;6919;52.344;14.518;2023-02-23T01:42:01;100603.66;;;3.59;100.00
13695;BME280;6919;52.344;14.518;2023-02-23T01:47:50;100598.41;;;3.46;100.00
13695;BME280;6919;52.344;14.518;2023-02-23T01:50:21;100599.03;;;3.37;100.00
13695;BME280;6919;52.344;14.518;2023-02-23T01:52:52;100592.03;;;3.49;100.00
13695;BME280;6919;52.344;14.518;2023-02-23T01:55:23;100584.13;;;3.24;100.00
13695;BME280;6919;52.344;14.518;2023-02-23T01:58:03;100596.59;;;3.34;100.00
13695;BME280;6919;52.344;14.518;2023-02-23T02:00:33;100580.94;;;3.31;100.00
13695;BME280;6919;52.344;14.518;2023-02-23T02:03:07;100581.84;;;3.43;100.00
13695;BME280;6919;52.344;14.518;2023-02-23T02:05:39;100572.44;;;3.39;100.00
13695;BME280;6919;52.344;14.518;2023-02-23T02:08:10;100582.94;;;3.40;100.00
13695;BME280;6919;52.344;14.518;2023-02-23T02:10:39;100572.59;;;3.12;100.00
13695;BME280;6919;52.344;14.518;2023-02-23T02:13:16;100572.16;;;3.31;100.00
13695;BME280;6919;52.344;14.518;2023-02-23T02:16:17;100569.00;;;3.26;100.00
13695;BME280;6919;52.344;14.518;2023-02-23T02:19:05;100569.19;;;3.23;100.00
13695;BME280;6919;52.344;14.518;2023-02-23T02:25:17;100555.31;;;3.19;100.00
13695;BME280;6919;52.344;14.518;2023-02-23T02:31:11;100551.28;;;3.13;100.00
13695;BME280;6919;52.344;14.518;2023-02-23T02:34:09;100545.59;;;3.07;100.00
13695;BME280;6919;52.344;14.518;2023-02-23T02:37:14;100544.00;;;3.17;100.00
13695;BME280;6919;52.344;14.518;2023-02-23T02:39:52;100541.63;;;3.25;100.00
13695;BME280;6919;52.344;14.518;2023-02-23T02:42:58;100539.09;;;3.24;100.00
13695;BME280;6919;52.344;14.518;2023-02-23T02:45:33;100530.31;;;3.10;100.00
13695;BME280;6919;52.344;14.518;2023-02-23T02:48:12;100533.16;;;3.20;100.00
13695;BME280;6919;52.344;14.518;2023-02-23T02:50:46;100525.00;;;3.10;100.00
13695;BME280;6919;52.344;14.518;2023-02-23T02:53:25;100533.75;;;3.00;100.00
13695;BME280;6919;52.344;14.518;2023-02-23T02:55:57;100528.13;;;3.04;100.00
13695;BME280;6919;52.344;14.518;2023-02-23T02:58:29;100533.44;;;2.92;100.00
13695;BME280;6919;52.344;14.518;2023-02-23T03:01:05;100522.28;;;2.99;100.00
13695;BME280;6919;52.344;14.518;2023-02-23T03:03:52;100526.75;;;2.99;100.00
13695;BME280;6919;52.344;14.518;2023-02-23T03:06:44;100527.47;;;3.01;100.00
13695;BME280;6919;52.344;14.518;2023-02-23T03:09:36;100522.84;;;2.92;100.00
13695;BME280;6919;52.344;14.518;2023-02-23T03:12:34;100529.63;;;2.96;100.00
13695;BME280;6919;52.344;14.518;2023-02-23T03:15:34;100531.06;;;3.13;100.00
13695;BME280;6919;52.344;14.518;2023-02-23T03:18:36;100529.41;;;2.99;100.00
13695;BME280;6919;52.344;14.518;2023-02-23T03:21:30;100525.59;;;2.90;100.00
13695;BME280;6919;52.344;14.518;2023-02-23T03:24:23;100525.91;;;2.86;100.00
13695;BME280;6919;52.344;14.518;2023-02-23T03:27:20;100518.19;;;2.83;100.00
13695;BME280;6919;52.344;14.518;2023-02-23T03:30:14;100524.94;;;2.87;100.00
13695;BME280;6919;52.344;14.518;2023-02-23T03:33:09;100523.34;;;2.97;100.00
13695;BME280;6919;52.344;14.518;2023-02-23T03:36:00;100523.69;;;2.92;100.00
13695;BME280;6919;52.344;14.518;2023-02-23T03:38:52;100513.97;;;2.80;100.00
13695;BME280;6919;52.344;14.518;2023-02-23T03:41:41;100519.25;;;2.68;100.00
13695;BME280;6919;52.344;14.518;2023-02-23T03:44:33;100506.34;;;2.76;100.00
13695;BME280;6919;52.344;14.518;2023-02-23T03:47:25;100506.53;;;2.73;100.00
13695;BME280;6919;52.344;14.518;2023-02-23T03:50:18;100508.75;;;2.79;100.00
13695;BME280;6919;52.344;14.518;2023-02-23T03:53:08;100500.28;;;2.61;100.00
13695;BME280;6919;52.344;14.518;2023-02-23T03:55:57;100501.16;;;2.62;100.00
13695;BME280;6919;52.344;14.518;2023-02-23T03:58:47;100495.44;;;2.55;100.00
13695;BME280;6919;52.344;14.518;2023-02-23T04:01:38;100496.81;;;2.61;100.00
13695;BME280;6919;52.344;14.518;2023-02-23T04:04:25;100496.16;;;2.70;100.00
13695;BME280;6919;52.344;14.518;2023-02-23T04:07:15;100501.56;;;2.56;100.00
13695;BME280;6919;52.344;14.518;2023-02-23T04:10:02;100503.50;;;2.54;100.00
13695;BME280;6919;52.344;14.518;2023-02-23T04:12:53;100491.31;;;2.51;100.00
13695;BME280;6919;52.344;14.518;2023-02-23T04:15:48;100495.56;;;2.54;100.00
13695;BME280;6919;52.344;14.518;2023-02-23T04:18:22;100494.78;;;2.64;100.00
13695;BME280;6919;52.344;14.518;2023-02-23T04:20:52;100497.88;;;2.46;100.00
13695;BME280;6919;52.344;14.518;2023-02-23T04:23:21;100498.59;;;2.48;100.00
13695;BME280;6919;52.344;14.518;2023-02-23T04:25:51;100496.91;;;2.59;100.00
13695;BME280;6919;52.344;14.518;2023-02-23T04:28:21;100495.75;;;2.51;100.00
13695;BME280;6919;52.344;14.518;2023-02-23T04:30:50;100491.63;;;2.47;100.00
13695;BME280;6919;52.344;14.518;2023-02-23T04:33:21;100496.16;;;2.45;100.00
13695;BME280;6919;52.344;14.518;2023-02-23T04:35:52;100496.16;;;2.45;100.00
13695;BME280;6919;52.344;14.518;2023-02-23T04:38:21;100486.13;;;2.37;100.00
13695;BME280;6919;52.344;14.518;2023-02-23T04:40:50;100488.88;;;2.36;100.00
13695;BME280;6919;52.344;14.518;2023-02-23T04:43:19;100494.38;;;2.33;100.00
13695;BME280;6919;52.344;14.518;2023-02-23T04:45:48;100480.50;;;2.29;100.00
13695;BME280;6919;52.344;14.518;2023-02-23T04:48:17;100478.91;;;2.27;100.00
13695;BME280;6919;52.344;14.518;2023-02-23T04:50:50;100474.78;;;2.23;100.00
13695;BME280;6919;52.344;14.518;2023-02-23T04:53:19;100481.97;;;2.21;100.00
13695;BME280;6919;52.344;14.518;2023-02-23T04:55:48;100478.91;;;2.27;100.00
13695;BME280;6919;52.344;14.518;2023-02-23T04:58:17;100478.50;;;2.20;100.00
13695;BME280;6919;52.344;14.518;2023-02-23T05:00:45;100475.09;;;2.18;100.00
13695;BME280;6919;52.344;14.518;2023-02-23T05:03:14;100475.00;;;2.32;100.00
13695;BME280;6919;52.344;14.518;2023-02-23T05:05:44;100470.25;;;2.25;100.00
13695;BME280;6919;52.344;14.518;2023-02-23T05:08:14;100466.75;;;2.12;100.00
13695;BME280;6919;52.344;14.518;2023-02-23T05:10:44;100475.19;;;2.17;100.00
13695;BME280;6919;52.344;14.518;2023-02-23T05:13:13;100466.19;;;2.07;100.00
13695;BME280;6919;52.344;14.518;2023-02-23T05:15:42;100471.16;;;1.99;100.00
13695;BME280;6919;52.344;14.518;2023-02-23T05:18:11;100468.53;;;1.99;100.00
13695;BME280;6919;52.344;14.518;2023-02-23T05:20:42;100463.34;;;2.10;100.00
13695;BME280;6919;52.344;14.518;2023-02-23T05:23:12;100476.25;;;2.02;100.00
13695;BME280;6919;52.344;14.518;2023-02-23T05:25:42;100473.00;;;2.11;100.00
13695;BME280;6919;52.344;14.518;2023-02-23T05:28:11;100462.94;;;2.16;100.00
13695;BME280;6919;52.344;14.518;2023-02-23T05:30:40;100472.34;;;2.07;100.00
13695;BME280;6919;52.344;14.518;2023-02-23T05:33:09;100469.28;;;2.01;100.00
13695;BME280;6919;52.344;14.518;2023-02-23T05:35:42;100467.47;;;2.01;100.00
13695;BME280;6919;52.344;14.518;2023-02-23T05:38:10;100469.47;;;1.98;100.00
13695;BME280;6919;52.344;14.518;2023-02-23T05:40:41;100465.66;;;1.89;100.00
13695;BME280;6919;52.344;14.518;2023-02-23T05:43:10;100471.38;;;1.96;100.00
13695;BME280;6919;52.344;14.518;2023-02-23T05:45:39;100470.63;;;1.94;100.00
13695;BME280;6919;52.344;14.518;2023-02-23T05:48:09;100467.78;;;1.97;100.00
13695;BME280;6919;52.344;14.518;2023-02-23T05:50:38;100470.53;;;1.95;100.00
13695;BME280;6919;52.344;14.518;2023-02-23T05:53:07;100460.38;;;1.89;100.00
13695;BME280;6919;52.344;14.518;2023-02-23T05:55:36;100463.31;;;1.85;100.00
13695;BME280;6919;52.344;14.518;2023-02-23T05:58:06;100458.22;;;1.82;100.00
13695;BME280;6919;52.344;14.518;2023-02-23T06:00:35;100465.22;;;1.83;100.00
13695;BME280;6919;52.344;14.518;2023-02-23T06:03:04;100461.63;;;1.84;100.00
13695;BME280;6919;52.344;14.518;2023-02-23T06:05:33;100473.88;;;1.85;100.00
13695;BME280;6919;52.344;14.518;2023-02-23T06:08:01;100455.69;;;1.80;100.00
13695;BME280;6919;52.344;14.518;2023-02-23T06:10:30;100452.97;;;1.94;100.00
13695;BME280;6919;52.344;14.518;2023-02-23T06:12:59;100452.25;;;1.92;100.00
13695;BME280;6919;52.344;14.518;2023-02-23T06:15:32;100459.75;;;1.86;100.00
13695;BME280;6919;52.344;14.518;2023-02-23T06:18:01;100458.03;;;1.85;100.00
13695;BME280;6919;52.344;14.518;2023-02-23T06:20:30;100459.22;;;1.93;100.00
13695;BME280;6919;52.344;14.518;2023-02-23T06:22:59;100468.97;;;1.93;100.00
13695;BME280;6919;52.344;14.518;2023-02-23T06:25:27;100465.66;;;2.02;100.00
13695;BME280;6919;52.344;14.518;2023-02-23T06:27:56;100473.72;;;2.00;100.00
13695;BME280;6919;52.344;14.518;2023-02-23T06:30:25;100476.91;;;2.05;100.00
13695;BME280;6919;52.344;14.518;2023-02-23T06:32:55;100470.75;;;2.05;100.00
13695;BME280;6919;52.344;14.518;2023-02-23T06:35:24;100475.09;;;2.06;100.00
13695;BME280;6919;52.344;14.518;2023-02-23T06:37:53;100471.63;;;2.18;100.00
13695;BME280;6919;52.344;14.518;2023-02-23T06:40:23;100475.19;;;2.17;100.00
13695;BME280;6919;52.344;14.518;2023-02-23T06:42:51;100472.66;;;2.28;100.00
13695;BME280;6919;52.344;14.518;2023-02-23T06:45:20;100483.38;;;2.26;100.00
13695;BME280;6919;52.344;14.518;2023-02-23T06:47:49;100482.22;;;2.30;100.00
13695;BME280;6919;52.344;14.518;2023-02-23T06:50:21;100486.44;;;2.33;100.00
13695;BME280;6919;52.344;14.518;2023-02-23T06:52:50;100486.66;;;2.42;100.00
13695;BME280;6919;52.344;14.518;2023-02-23T06:55:19;100480.75;;;2.51;100.00
13695;BME280;6919;52.344;14.518;2023-02-23T06:57:48;100483.69;;;2.59;100.00
13695;BME280;6919;52.344;14.518;2023-02-23T07:00:18;100486.22;;;2.61;100.00
13695;BME280;6919;52.344;14.518;2023-02-23T07:02:47;100481.03;;;2.59;100.00
13695;BME280;6919;52.344;14.518;2023-02-23T07:05:16;100475.34;;;2.65;100.00
13695;BME280;6919;52.344;14.518;2023-02-23T07:07:47;100480.81;;;2.75;100.00
13695;BME280;6919;52.344;14.518;2023-02-23T07:10:16;100481.97;;;2.83;100.00
13695;BME280;6919;52.344;14.518;2023-02-23T07:12:45;100477.72;;;2.81;100.00
13695;BME280;6919;52.344;14.518;2023-02-23T07:15:14;100483.88;;;2.81;100.00
13695;BME280;6919;52.344;14.518;2023-02-23T07:17:44;100487.47;;;2.80;100.00
13695;BME280;6919;52.344;14.518;2023-02-23T07:20:15;100477.59;;;2.95;100.00
13695;BME280;6919;52.344;14.518;2023-02-23T07:22:45;100481.59;;;3.00;100.00
13695;BME280;6919;52.344;14.518;2023-02-23T07:25:14;100476.38;;;3.24;100.00
13695;BME280;6919;52.344;14.518;2023-02-23T07:27:42;100476.31;;;3.13;100.00
13695;BME280;6919;52.344;14.518;2023-02-23T07:30:12;100478.28;;;3.22;100.00
13695;BME280;6919;52.344;14.518;2023-02-23T07:32:41;100472.19;;;3.33;100.00
13695;BME280;6919;52.344;14.518;2023-02-23T07:35:10;100472.31;;;3.31;100.00
13695;BME280;6919;52.344;14.518;2023-02-23T07:37:39;100476.72;;;3.43;100.00
13695;BME280;6919;52.344;14.518;2023-02-23T07:40:10;100470.84;;;3.51;100.00
13695;BME280;6919;52.344;14.518;2023-02-23T07:42:39;100461.88;;;3.41;100.00
13695;BME280;6919;52.344;14.518;2023-02-23T07:45:08;100459.78;;;3.57;100.00
13695;BME280;6919;52.344;14.518;2023-02-23T07:47:37;100461.25;;;3.61;100.00
13695;BME280;6919;52.344;14.518;2023-02-23T07:50:07;100459.25;;;3.75;100.00
13695;BME280;6919;52.344;14.518;2023-02-23T07:52:38;100465.19;;;3.79;100.00
13695;BME280;6919;52.344;14.518;2023-02-23T07:55:09;100466.94;;;3.67;100.00
13695;BME280;6919;52.344;14.518;2023-02-23T07:57:38;100457.84;;;3.82;100.00
13695;BME280;6919;52.344;14.518;2023-02-23T08:00:08;100453.91;;;3.99;100.00
13695;BME280;6919;52.344;14.518;2023-02-23T08:02:38;100448.75;;;4.08;100.00
13695;BME280;6919;52.344;14.518;2023-02-23T08:05:07;100438.13;;;4.08;100.00
13695;BME280;6919;52.344;14.518;2023-02-23T08:07:36;100459.00;;;4.02;100.00
13695;BME280;6919;52.344;14.518;2023-02-23T08:10:06;100449.16;;;4.15;100.00
13695;BME280;6919;52.344;14.518;2023-02-23T08:12:36;100444.78;;;4.14;100.00
13695;BME280;6919;52.344;14.518;2023-02-23T08:15:05;100454.94;;;4.31;100.00
13695;BME280;6919;52.344;14.518;2023-02-23T08:17:35;100448.41;;;4.24;100.00
13695;BME280;6919;52.344;14.518;2023-02-23T08:20:06;100452.91;;;4.23;100.00
13695;BME280;6919;52.344;14.518;2023-02-23T08:22:35;100446.16;;;4.30;100.00
13695;BME280;6919;52.344;14.518;2023-02-23T08:25:16;100446.06;;;4.54;100.00
13695;BME280;6919;52.344;14.518;2023-02-23T08:27:47;100448.97;;;4.62;100.00
13695;BME280;6919;52.344;14.518;2023-02-23T08:30:18;100436.41;;;4.64;100.00
13695;BME280;6919;52.344;14.518;2023-02-23T08:32:47;100441.09;;;4.71;100.00
13695;BME280;6919;52.344;14.518;2023-02-23T08:35:17;100445.09;;;4.77;100.00
13695;BME280;6919;52.344;14.518;2023-02-23T08:37:46;100444.84;;;4.91;100.00
13695;BME280;6919;52.344;14.518;2023-02-23T08:40:15;100437.97;;;4.77;100.00
13695;BME280;6919;52.344;14.518;2023-02-23T08:42:45;100438.31;;;4.84;100.00
13695;BME280;6919;52.344;14.518;2023-02-23T08:45:19;100432.59;;;5.10;100.00
13695;BME280;6919;52.344;14.518;2023-02-23T08:47:47;100430.19;;;5.18;100.00
13695;BME280;6919;52.344;14.518;2023-02-23T08:50:16;100436.91;;;5.33;100.00
13695;BME280;6919;52.344;14.518;2023-02-23T08:52:45;100436.16;;;5.42;100.00
13695;BME280;6919;52.344;14.518;2023-02-23T08:55:14;100437.84;;;5.43;100.00
13695;BME280;6919;52.344;14.518;2023-02-23T08:57:42;100434.06;;;5.57;100.00
13695;BME280;6919;52.344;14.518;2023-02-23T09:00:14;100439.09;;;5.28;100.00
13695;BME280;6919;52.344;14.518;2023-02-23T09:02:43;100422.72;;;5.44;100.00
13695;BME280;6919;52.344;14.518;2023-02-23T09:05:14;100430.34;;;5.48;100.00
13695;BME280;6919;52.344;14.518;2023-02-23T09:07:44;100427.13;;;5.65;100.00
13695;BME280;6919;52.344;14.518;2023-02-23T09:10:14;100425.31;;;5.34;100.00
13695;BME280;6919;52.344;14.518;2023-02-23T09:12:43;100424.41;;;5.56;100.00
13695;BME280;6919;52.344;14.518;2023-02-23T09:15:13;100429.97;;;5.84;100.00
13695;BME280;6919;52.344;14.518;2023-02-23T09:17:41;100428.75;;;5.77;100.00
13695;BME280;6919;52.344;14.518;2023-02-23T09:20:13;100422.91;;;5.94;100.00
13695;BME280;6919;52.344;14.518;2023-02-23T09:22:42;100428.84;;;5.98;100.00
13695;BME280;6919;52.344;14.518;2023-02-23T09:25:15;100429.09;;;5.95;100.00
13695;BME280;6919;52.344;14.518;2023-02-23T09:27:45;100425.63;;;6.04;100.00
13695;BME280;6919;52.344;14.518;2023-02-23T09:30:15;100430.69;;;6.07;100.00
13695;BME280;6919;52.344;14.518;2023-02-23T09:32:47;100434.66;;;6.13;100.00
13695;BME280;6919;52.344;14.518;2023-02-23T09:35:19;100422.78;;;6.37;100.00
13695;BME280;6919;52.344;14.518;2023-02-23T09:37:49;100427.41;;;6.45;100.00
13695;BME280;6919;52.344;14.518;2023-02-23T09:40:21;100428.53;;;6.42;100.00
13695;BME280;6919;52.344;14.518;2023-02-23T09:42:59;100429.72;;;6.89;100.00
13695;BME280;6919;52.344;14.518;2023-02-23T09:45:37;100427.03;;;6.79;100.00
13695;BME280;6919;52.344;14.518;2023-02-23T09:48:14;100422.75;;;6.97;100.00
13695;BME280;6919;52.344;14.518;2023-02-23T09:50:48;100416.50;;;6.78;100.00
13695;BME280;6919;52.344;14.518;2023-02-23T09:53:37;100424.38;;;6.79;100.00
13695;BME280;6919;52.344;14.518;2023-02-23T09:56:11;100424.31;;;7.09;100.00
13695;BME280;6919;52.344;14.518;2023-02-23T09:58:41;100427.34;;;6.95;100.00
13695;BME280;6919;52.344;14.518;2023-02-23T10:01:45;100423.88;;;7.04;100.00
13695;BME280;6919;52.344;14.518;2023-02-23T10:04:21;100428.53;;;7.12;100.00
13695;BME280;6919;52.344;14.518;2023-02-23T10:06:56;100427.59;;;7.51;100.00
13695;BME280;6919;52.344;14.518;2023-02-23T10:09:38;100425.34;;;7.46;100.00
13695;BME280;6919;52.344;14.518;2023-02-23T10:12:21;100423.94;;;7.42;100.00
13695;BME280;6919;52.344;14.518;2023-02-23T10:15:15;100424.53;;;7.65;100.00
13695;BME280;6919;52.344;14.518;2023-02-23T10:17:55;100428.19;;;7.45;100.00
13695;BME280;6919;52.344;14.518;2023-02-23T10:20:37;100422.53;;;7.29;100.00
13695;BME280;6919;52.344;14.518;2023-02-23T10:23:13;100426.50;;;7.72;100.00
13695;BME280;6919;52.344;14.518;2023-02-23T10:25:45;100419.34;;;7.54;100.00
13695;BME280;6919;52.344;14.518;2023-02-23T10:28:17;100413.03;;;7.74;100.00
13695;BME280;6919;52.344;14.518;2023-02-23T10:30:49;100424.41;;;7.85;100.00
13695;BME280;6919;52.344;14.518;2023-02-23T10:33:21;100421.75;;;7.85;100.00
13695;BME280;6919;52.344;14.518;2023-02-23T10:35:56;100418.09;;;7.77;100.00
13695;BME280;6919;52.344;14.518;2023-02-23T10:38:39;100420.59;;;7.97;100.00
13695;BME280;6919;52.344;14.518;2023-02-23T10:41:08;100417.06;;;8.16;100.00
13695;BME280;6919;52.344;14.518;2023-02-23T10:43:41;100404.56;;;8.26;100.00
13695;BME280;6919;52.344;14.518;2023-02-23T10:46:13;100408.34;;;8.14;100.00
13695;BME280;6919;52.344;14.518;2023-02-23T10:48:47;100398.72;;;8.49;100.00
13695;BME280;6919;52.344;14.518;2023-02-23T10:51:20;100408.31;;;8.42;100.00
13695;BME280;6919;52.344;14.518;2023-02-23T10:53:49;100414.63;;;8.78;100.00
13695;BME280;6919;52.344;14.518;2023-02-23T10:56:20;100406.41;;;8.62;100.00
13695;BME280;6919;52.344;14.518;2023-02-23T10:58:51;100396.88;;;8.86;100.00
13695;BME280;6919;52.344;14.518;2023-02-23T11:01:33;100398.25;;;8.90;100.00
13695;BME280;6919;52.344;14.518;2023-02-23T11:04:19;100385.09;;;8.79;100.00
13695;BME280;6919;52.344;14.518;2023-02-23T11:06:49;100382.72;;;9.03;100.00
13695;BME280;6919;52.344;14.518;2023-02-23T11:09:24;100388.94;;;8.94;100.00
13695;BME280;6919;52.344;14.518;2023-02-23T11:12:22;100381.13;;;9.28;100.00
13695;BME280;6919;52.344;14.518;2023-02-23T11:14:54;100383.44;;;9.23;100.00
13695;BME280;6919;52.344;14.518;2023-02-23T11:17:29;100384.31;;;9.14;100.00
13695;BME280;6919;52.344;14.518;2023-02-23T11:20:03;100381.66;;;9.14;100.00
13695;BME280;6919;52.344;14.518;2023-02-23T11:22:34;100373.75;;;8.95;100.00
13695;BME280;6919;52.344;14.518;2023-02-23T11:25:14;100378.41;;;8.93;100.00
13695;BME280;6919;52.344;14.518;2023-02-23T11:27:46;100364.28;;;9.63;100.00
13695;BME280;6919;52.344;14.518;2023-02-23T11:30:20;100356.31;;;9.18;100.00
13695;BME280;6919;52.344;14.518;2023-02-23T11:32:52;100365.94;;;9.46;100.00
13695;BME280;6919;52.344;14.518;2023-02-23T11:35:29;100360.03;;;9.60;100.00
13695;BME280;6919;52.344;14.518;2023-02-23T11:37:58;100361.59;;;9.63;100.00
13695;BME280;6919;52.344;14.518;2023-02-23T11:40:28;100351.72;;;9.46;100.00
13695;BME280;6919;52.344;14.518;2023-02-23T11:43:07;100347.72;;;9.67;100.00
13695;BME280;6919;52.344;14.518;2023-02-23T11:45:43;100348.78;;;9.74;100.00
13695;BME280;6919;52.344;14.518;2023-02-23T11:48:21;100349.84;;;9.99;100.00
13695;BME280;6919;52.344;14.518;2023-02-23T11:50:55;100352.13;;;10.37;100.00
13695;BME280;6919;52.344;14.518;2023-02-23T11:53:28;100343.78;;;10.14;100.00
13695;BME280;6919;52.344;14.518;2023-02-23T11:56:00;100345.06;;;10.69;100.00
13695;BME280;6919;52.344;14.518;2023-02-23T11:58:37;100342.09;;;10.80;100.00
13695;BME280;6919;52.344;14.518;2023-02-23T12:01:07;100334.66;;;10.66;100.00
13695;BME280;6919;52.344;14.518;2023-02-23T12:03:43;100335.50;;;10.67;100.00
13695;BME280;6919;52.344;14.518;2023-02-23T12:06:25;100337.91;;;10.78;100.00
13695;BME280;6919;52.344;14.518;2023-02-23T12:09:03;100338.22;;;10.75;100.00
13695;BME280;6919;52.344;14.518;2023-02-23T12:11:39;100326.59;;;10.58;100.00
13695;BME280;6919;52.344;14.518;2023-02-23T12:14:21;100330.16;;;10.75;100.00
13695;BME280;6919;52.344;14.518;2023-02-23T12:16:56;100326.78;;;11.14;100.00
13695;BME280;6919;52.344;14.518;2023-02-23T12:19:29;100324.09;;;11.06;100.00
13695;BME280;6919;52.344;14.518;2023-02-23T12:22:04;100328.66;;;10.72;100.00
13695;BME280;6919;52.344;14.518;2023-02-23T12:24:41;100323.69;;;10.85;100.00
13695;BME280;6919;52.344;14.518;2023-02-23T12:27:14;100322.69;;;10.94;100.00
13695;BME280;6919;52.344;14.518;2023-02-23T12:29:54;100314.72;;;11.18;100.00
13695;BME280;6919;52.344;14.518;2023-02-23T12:32:39;100313.72;;;11.27;100.00
13695;BME280;6919;52.344;14.518;2023-02-23T12:35:15;100314.31;;;10.89;100.00
13695;BME280;6919;52.344;14.518;2023-02-23T12:37:52;100303.25;;;10.92;100.00
13695;BME280;6919;52.344;14.518;2023-02-23T12:40:26;100304.22;;;10.83;100.00
13695;BME280;6919;52.344;14.518;2023-02-23T12:42:59;100303.75;;;10.88;100.00
13695;BME280;6919;52.344;14.518;2023-02-23T12:45:34;100303.91;;;10.86;100.00
13695;BME280;6919;52.344;14.518;2023-02-23T12:48:17;100301.22;;;10.86;100.00
13695;BME280;6919;52.344;14.518;2023-02-23T12:50:54;100300.03;;;10.81;100.00
13695;BME280;6919;52.344;14.518;2023-02-23T12:53:27;100301.78;;;11.06;100.00
13695;BME280;6919;52.344;14.518;2023-02-23T12:56:16;100300.66;;;10.67;100.00
13695;BME280;6919;52.344;14.518;2023-02-23T12:58:55;100301.22;;;10.94;100.00
13695;BME280;6919;52.344;14.518;2023-02-23T13:01:30;100300.59;;;11.00;100.00
13695;BME280;6919;52.344;14.518;2023-02-23T13:04:17;100299.25;;;10.96;100.00
13695;BME280;6919;52.344;14.518;2023-02-23T13:06:57;100297.78;;;11.34;100.00
13695;BME280;6919;52.344;14.518;2023-02-23T13:09:43;100295.78;;;11.44;100.00
13695;BME280;6919;52.344;14.518;2023-02-23T13:12:28;100296.50;;;11.62;100.00
13695;BME280;6919;52.344;14.518;2023-02-23T13:15:13;100295.25;;;11.16;100.00
13695;BME280;6919;52.344;14.518;2023-02-23T13:17:51;100286.78;;;10.87;100.00
13695;BME280;6919;52.344;14.518;2023-02-23T13:20:25;100280.78;;;10.85;100.00
13695;BME280;6919;52.344;14.518;2023-02-23T13:23:08;100282.59;;;10.85;100.00
13695;BME280;6919;52.344;14.518;2023-02-23T13:25:48;100286.31;;;10.92;100.00
13695;BME280;6919;52.344;14.518;2023-02-23T13:28:31;100276.59;;;10.99;100.00
13695;BME280;6919;52.344;14.518;2023-02-23T13:31:03;100271.59;;;11.04;100.00
13695;BME280;6919;52.344;14.518;2023-02-23T13:33:35;100264.22;;;11.14;100.00
13695;BME280;6919;52.344;14.518;2023-02-23T13:36:11;100272.25;;;11.14;100.00